Time;durP1;ratioP1;P1;durP2;ratioP2;P2;SDS_P1;SDS_P2;PMS_P1;PMS_P2;Temp;Humidity;BMP_temperature;BMP_pressure;BME280_temperature;BME280_humidity;BME280_pressure;Samples;Min_cycle;Max_cycle;Signal;HPM_P1;HPM_P2
2022/05/25 00:02:25;;;;;;;9.90;3.60;;;;;;;11.86;65.70;100060.06;10437251;28;20042;-81
2022/05/25 00:07:28;;;;;;;4.45;3.05;;;;;;;11.84;65.73;100064.72;10448656;28;20045;-82
2022/05/25 00:12:33;;;;;;;6.82;3.30;;;;;;;11.78;65.97;100065.28;10433741;28;20042;-79
2022/05/25 00:17:39;;;;;;;4.50;3.15;;;;;;;11.78;66.08;100077.91;10441474;28;20049;-78
2022/05/25 00:22:45;;;;;;;3.63;3.03;;;;;;;11.75;66.10;100080.88;10440675;28;20049;-79
2022/05/25 00:27:50;;;;;;;6.75;2.95;;;;;;;11.74;66.20;100085.41;10443709;28;20139;-79
2022/05/25 00:32:53;;;;;;;4.55;3.30;;;;;;;11.67;66.62;100076.19;10449692;28;20049;-80
2022/05/25 00:37:56;;;;;;;3.83;3.13;;;;;;;11.70;66.70;100081.28;10440673;28;20057;-81
2022/05/25 00:43:01;;;;;;;3.95;2.90;;;;;;;11.75;66.76;100076.34;10433672;28;20040;-79
2022/05/25 00:48:05;;;;;;;8.63;3.45;;;;;;;11.70;66.68;100082.13;10436949;28;20405;-78
2022/05/25 00:53:08;;;;;;;6.53;3.75;;;;;;;11.56;66.86;100087.91;10440016;28;20041;-80
2022/05/25 00:58:12;;;;;;;6.50;3.35;;;;;;;11.52;67.02;100097.25;10434748;28;20095;-80
2022/05/25 01:03:15;;;;;;;7.10;3.83;;;;;;;11.47;67.20;100107.56;10453711;28;20049;-80
2022/05/25 01:08:30;;;;;;;;;;;;;;;11.43;67.33;100104.28;10431553;28;20045;-80
2022/05/25 01:13:44;;;;;;;5.97;3.67;;;;;;;11.39;67.45;100104.72;10443763;28;19920;-78
2022/05/25 01:18:51;;;;;;;5.80;3.92;;;;;;;11.40;67.54;100106.41;10438873;28;20091;-79
2022/05/25 01:24:10;;;;;;;4.20;3.72;;;;;;;11.32;67.73;100117.00;10443049;28;20037;-79
2022/05/25 01:29:46;;;;;;;3.50;3.20;;;;;;;11.25;68.23;100122.06;10419391;28;20045;-82
2022/05/25 01:34:55;;;;;;;7.63;3.50;;;;;;;11.14;68.44;100119.47;10431663;28;20181;-78
2022/05/25 01:40:08;;;;;;;4.43;3.60;;;;;;;11.14;68.42;100114.94;10436483;28;20096;-79
2022/05/25 01:45:11;;;;;;;4.93;3.73;;;;;;;11.17;68.26;100121.91;10437028;28;20106;-80
2022/05/25 01:50:18;;;;;;;5.50;3.90;;;;;;;11.09;68.27;100124.38;10434238;28;20045;-81
2022/05/25 01:55:24;;;;;;;3.83;3.22;;;;;;;11.01;68.54;100128.56;10435142;28;20053;-80
2022/05/25 02:00:31;;;;;;;5.78;3.58;;;;;;;10.98;68.48;100128.84;10444899;28;20333;-80
2022/05/25 02:05:37;;;;;;;7.25;3.90;;;;;;;10.92;68.62;100129.38;10440221;28;20355;-81
2022/05/25 02:10:52;;;;;;;4.55;3.50;;;;;;;10.88;68.58;100125.25;10454586;28;20048;-78
2022/05/25 02:16:04;;;;;;;6.40;3.70;;;;;;;10.87;68.53;100126.22;10443578;28;20050;-78
2022/05/25 02:21:15;;;;;;;6.60;3.63;;;;;;;10.84;68.52;100134.56;10452209;28;20528;-79
2022/05/25 02:26:22;;;;;;;6.25;4.43;;;;;;;10.84;68.56;100139.94;10453561;28;20075;-81
2022/05/25 02:31:29;;;;;;;5.63;4.00;;;;;;;10.82;68.44;100148.13;10452217;28;20052;-81
2022/05/25 02:36:37;;;;;;;4.55;3.75;;;;;;;10.79;68.34;100151.06;10445942;28;20052;-79
2022/05/25 02:41:44;;;;;;;4.50;3.60;;;;;;;10.75;68.61;100144.28;10453463;28;20063;-81
2022/05/25 02:46:47;;;;;;;7.68;3.65;;;;;;;10.73;68.66;100156.97;10451825;28;20041;-81
2022/05/25 02:51:52;;;;;;;8.32;4.20;;;;;;;10.72;68.52;100157.09;10456564;28;20118;-81
2022/05/25 02:56:55;;;;;;;8.32;3.95;;;;;;;10.65;68.78;100158.63;10432453;28;20056;-81
2022/05/25 03:01:57;;;;;;;;;;;;;;;10.58;68.91;100159.09;10446677;28;20525;-80
2022/05/25 03:07:02;;;;;;;7.13;3.58;;;;;;;10.48;69.09;100168.09;10443146;28;19925;-80
2022/05/25 03:12:05;;;;;;;5.20;3.50;;;;;;;10.41;69.59;100175.81;10442876;28;20097;-78
2022/05/25 03:17:12;;;;;;;5.75;3.97;;;;;;;10.37;69.73;100177.06;10451730;28;20136;-80
2022/05/25 03:22:17;;;;;;;10.45;4.00;;;;;;;10.31;69.92;100178.41;10446151;28;20115;-80
2022/05/25 03:27:19;;;;;;;7.53;4.30;;;;;;;10.36;69.75;100186.06;10453554;28;20152;-81
2022/05/25 03:32:22;;;;;;;;;;;;;;;10.24;70.31;100190.63;10447934;28;20037;-79
2022/05/25 03:37:26;;;;;;;7.15;5.07;;;;;;;10.24;70.32;100196.00;10438241;28;19931;-80
2022/05/25 03:42:29;;;;;;;6.65;4.10;;;;;;;10.15;70.61;100191.41;10439938;28;20046;-80
2022/05/25 03:47:32;;;;;;;;;;;;;;;10.13;70.85;100193.34;10447074;28;20053;-79
2022/05/25 03:52:37;;;;;;;8.25;4.43;;;;;;;10.07;71.05;100191.19;10445991;28;19921;-80
2022/05/25 03:57:40;;;;;;;6.35;4.03;;;;;;;10.02;71.34;100188.88;10441529;28;20080;-80
2022/05/25 04:02:43;;;;;;;8.23;4.85;;;;;;;10.00;71.43;100187.28;10442828;28;20037;-78
2022/05/25 04:07:48;;;;;;;;;;;;;;;10.02;71.63;100199.59;10435775;28;20049;-79
2022/05/25 04:12:50;;;;;;;7.88;5.03;;;;;;;10.08;71.58;100200.94;10441537;28;19920;-81
2022/05/25 04:17:54;;;;;;;;;;;;;;;10.03;71.77;100200.44;10450216;28;20045;-80
2022/05/25 04:22:58;;;;;;;;;;;;;;;10.11;71.68;100206.03;10438379;28;19944;-81
2022/05/25 04:28:00;;;;;;;7.75;5.60;;;;;;;10.19;71.47;100203.59;10432722;28;19983;-79
2022/05/25 04:33:03;;;;;;;;;;;;;;;10.13;71.68;100202.25;10445986;28;20041;-79
2022/05/25 04:38:08;;;;;;;9.65;5.63;;;;;;;10.38;71.04;100190.34;10439599;28;19927;-81
2022/05/25 04:43:13;;;;;;;8.60;5.63;;;;;;;10.40;71.17;100203.66;10440655;28;20473;-81
2022/05/25 04:48:19;;;;;;;11.45;6.55;;;;;;;10.50;70.89;100204.56;10444587;28;20049;-82
2022/05/25 04:53:23;;;;;;;13.90;6.75;;;;;;;10.54;70.94;100211.41;10447380;28;20120;-81
2022/05/25 04:58:28;;;;;;;8.88;6.72;;;;;;;10.80;70.32;100216.41;10446555;28;20068;-80
2022/05/25 05:03:31;;;;;;;12.10;6.88;;;;;;;10.82;69.99;100220.66;10443015;28;20073;-81
2022/05/25 05:08:36;;;;;;;12.07;7.47;;;;;;;11.05;69.72;100226.78;10444061;28;20053;-81
2022/05/25 05:13:39;;;;;;;9.18;6.72;;;;;;;11.13;69.51;100223.44;10439993;28;20053;-80
2022/05/25 05:18:43;;;;;;;10.30;7.13;;;;;;;11.36;69.34;100229.53;10434488;28;20453;-81
2022/05/25 05:24:00;;;;;;;11.75;7.90;;;;;;;11.50;69.19;100239.09;10441087;28;20737;-77
2022/05/25 05:29:02;;;;;;;8.63;7.10;;;;;;;11.71;69.07;100244.41;10442576;28;20097;-81
2022/05/25 05:34:05;;;;;;;;;;;;;;;11.70;68.71;100240.03;10441253;28;20041;-79
2022/05/25 05:39:11;;;;;;;9.13;7.13;;;;;;;11.92;68.42;100238.97;10436474;28;19932;-80
2022/05/25 05:44:17;;;;;;;9.95;6.38;;;;;;;11.85;68.51;100236.00;10453605;28;20041;-80
2022/05/25 05:49:20;;;;;;;12.00;6.90;;;;;;;12.05;67.67;100244.97;10455591;28;20405;-80
2022/05/25 05:54:24;;;;;;;13.73;6.78;;;;;;;12.17;67.98;100251.09;10447567;28;20045;-81
2022/05/25 05:59:27;;;;;;;10.60;6.45;;;;;;;12.24;67.43;100254.94;10454557;28;20048;-78
2022/05/25 06:04:30;;;;;;;;;;;;;;;12.38;67.25;100256.44;10454937;28;20445;-76
2022/05/25 06:09:35;;;;;;;10.60;6.38;;;;;;;12.46;67.58;100256.59;10442128;28;19943;-80
2022/05/25 06:14:38;;;;;;;13.07;6.97;;;;;;;12.50;67.15;100268.75;10464331;28;20102;-78
2022/05/25 06:19:41;;;;;;;14.30;6.45;;;;;;;12.57;66.41;100267.22;10451738;28;20049;-80
2022/05/25 06:24:48;;;;;;;10.55;7.07;;;;;;;12.93;66.05;100269.38;10445165;28;20041;-79
2022/05/25 06:29:52;;;;;;;11.23;7.50;;;;;;;12.85;66.71;100286.25;10427120;28;20120;-80
2022/05/25 06:34:56;;;;;;;9.30;7.63;;;;;;;12.99;66.24;100291.22;10442397;28;20091;-81
2022/05/25 06:40:01;;;;;;;15.82;7.88;;;;;;;13.00;65.32;100295.63;10439937;28;20037;-78
2022/05/25 06:45:05;;;;;;;11.32;6.55;;;;;;;13.07;64.55;100295.91;10446191;28;20037;-80
2022/05/25 06:50:08;;;;;;;7.82;4.38;;;;;;;12.94;64.43;100303.41;10457143;28;20053;-80
2022/05/25 06:55:12;;;;;;;8.13;5.15;;;;;;;13.08;63.89;100307.53;10460476;28;20412;-78
2022/05/25 07:00:16;;;;;;;6.95;5.57;;;;;;;13.34;64.17;100305.94;10448870;28;20053;-80
2022/05/25 07:05:19;;;;;;;5.15;3.45;;;;;;;13.29;60.04;100310.94;10449000;28;20039;-81
2022/05/25 07:10:23;;;;;;;7.45;3.97;;;;;;;13.71;61.21;100307.88;10449562;28;20044;-80
2022/05/25 07:15:26;;;;;;;6.82;3.63;;;;;;;13.66;58.63;100304.81;10447791;28;20067;-81
2022/05/25 07:20:35;;;;;;;7.40;3.03;;;;;;;14.82;57.18;100297.97;10411097;28;20127;-81
2022/05/25 07:25:39;;;;;;;8.65;4.80;;;;;;;15.90;55.28;100299.47;10443540;28;20044;-80
2022/05/25 07:30:43;;;;;;;8.93;5.30;;;;;;;15.75;54.51;100297.53;10423521;28;20131;-81
2022/05/25 07:35:46;;;;;;;10.05;6.15;;;;;;;15.72;55.26;100293.28;10453781;28;20040;-77
2022/05/25 07:40:50;;;;;;;8.50;6.05;;;;;;;19.63;46.44;100292.78;10441574;28;20053;-81
2022/05/25 07:45:53;;;;;;;8.70;6.95;;;;;;;16.73;51.69;100301.53;10433816;28;20048;-81
2022/05/25 07:50:57;;;;;;;12.30;7.40;;;;;;;17.43;50.38;100303.78;10433881;28;20050;-81
2022/05/25 07:56:03;;;;;;;13.57;7.40;;;;;;;17.30;51.00;100298.00;10443649;28;20053;-81
2022/05/25 08:01:11;;;;;;;9.25;6.82;;;;;;;16.44;52.62;100311.94;10445162;28;20042;-82
2022/05/25 08:06:14;;;;;;;11.63;9.35;;;;;;;15.42;56.13;100292.75;10421540;28;20045;-81
2022/05/25 08:11:20;;;;;;;10.27;8.90;;;;;;;16.06;54.68;100296.00;10442973;28;20110;-82
2022/05/25 08:16:23;;;;;;;9.55;8.55;;;;;;;15.79;54.52;100298.91;10442466;28;20476;-79
2022/05/25 08:21:26;;;;;;;8.98;8.10;;;;;;;16.21;52.65;100311.63;10444514;28;20067;-79
2022/05/25 08:26:49;;;;;;;7.40;5.60;;;;;;;16.25;51.20;100294.06;10445294;28;20049;-79
2022/05/25 08:31:55;;;;;;;8.20;6.15;;;;;;;16.46;51.67;100296.38;10446986;28;20037;-81
2022/05/25 08:36:58;;;;;;;8.40;7.60;;;;;;;15.30;54.64;100302.09;10442011;28;20073;-79
2022/05/25 08:42:07;;;;;;;11.88;6.50;;;;;;;15.25;54.62;100299.88;10431836;28;20091;-78
2022/05/25 08:47:12;;;;;;;7.63;6.88;;;;;;;15.80;52.56;100303.34;10447527;28;20045;-80
2022/05/25 08:52:23;;;;;;;7.00;6.40;;;;;;;16.44;51.06;100296.53;10440341;28;20041;-80
2022/05/25 08:57:32;;;;;;;5.18;4.70;;;;;;;16.71;50.37;100302.69;10438612;28;20046;-77
2022/05/25 09:02:46;;;;;;;9.00;5.55;;;;;;;16.67;51.67;100285.88;10445709;28;20065;-79
2022/05/25 09:08:00;;;;;;;6.22;4.60;;;;;;;17.26;47.59;100288.53;10453820;28;20115;-79
2022/05/25 09:13:09;;;;;;;6.13;5.03;;;;;;;17.93;49.11;100282.78;10437405;28;20041;-78
2022/05/25 09:18:15;;;;;;;5.22;4.82;;;;;;;17.35;48.06;100294.78;10438559;28;20056;-78
2022/05/25 09:23:31;;;;;;;5.57;4.65;;;;;;;16.61;49.73;100293.84;10432858;28;20060;-78
2022/05/25 09:28:39;;;;;;;6.50;4.10;;;;;;;16.86;48.37;100286.59;10428584;28;20064;-78
2022/05/25 09:33:49;;;;;;;5.30;3.67;;;;;;;16.96;48.92;100304.44;10449649;28;20186;-77
2022/05/25 09:39:01;;;;;;;6.15;3.97;;;;;;;17.43;47.79;100297.50;10445425;28;20045;-77
2022/05/25 09:44:06;;;;;;;7.90;2.92;;;;;;;16.64;48.66;100291.66;10439712;28;20091;-77
2022/05/25 09:49:12;;;;;;;3.47;2.40;;;;;;;16.62;48.38;100293.69;10436535;28;20048;-77
2022/05/25 09:54:22;;;;;;;3.55;2.00;;;;;;;18.10;47.17;100311.66;10438431;28;20132;-77
2022/05/25 09:59:31;;;;;;;2.67;1.80;;;;;;;17.77;44.04;100310.00;10445459;28;20114;-77
2022/05/25 10:04:36;;;;;;;2.85;1.58;;;;;;;16.42;47.42;100303.13;10412104;28;20115;-77
2022/05/25 10:09:45;;;;;;;2.67;1.50;;;;;;;16.19;45.81;100305.56;10417918;28;20502;-77
2022/05/25 10:14:59;;;;;;;2.45;1.30;;;;;;;17.18;44.59;100311.09;10427302;28;20099;-77
2022/05/25 10:20:05;;;;;;;3.35;1.33;;;;;;;18.01;43.98;100329.00;10435424;28;20041;-77
2022/05/25 10:25:13;;;;;;;1.15;0.80;;;;;;;17.65;44.08;100323.94;10423130;28;20045;-77
2022/05/25 10:41:41;;;;;;;1.10;0.80;;;;;;;18.63;41.72;100297.47;10481619;28;20097;-78
2022/05/25 10:46:53;;;;;;;4.22;0.50;;;;;;;19.08;39.49;100304.00;10474572;28;20486;-78
2022/05/25 10:52:01;;;;;;;4.32;1.00;;;;;;;19.35;40.48;100299.84;10433585;28;20056;-78
2022/05/25 10:57:22;;;;;;;2.45;0.60;;;;;;;18.98;41.99;100296.94;10449253;28;20065;-78
2022/05/25 11:02:51;;;;;;;1.60;0.73;;;;;;;18.64;41.48;100312.75;10460087;28;20386;-78
2022/05/25 11:07:59;;;;;;;2.38;0.55;;;;;;;18.80;40.18;100294.50;10449466;28;20113;-78
2022/05/25 11:13:33;;;;;;;0.73;0.50;;;;;;;19.33;40.57;100304.63;10443970;28;20037;-78
2022/05/25 11:18:50;;;;;;;1.15;0.47;;;;;;;19.24;40.69;100301.13;10462707;28;20045;-78
2022/05/25 11:24:09;;;;;;;1.15;0.88;;;;;;;18.99;40.31;100301.31;10469132;28;20041;-77
2022/05/25 11:29:28;;;;;;;2.58;0.68;;;;;;;18.72;40.91;100305.38;10460417;28;20079;-78
2022/05/25 11:34:55;;;;;;;1.48;0.73;;;;;;;19.14;41.36;100300.53;10431582;28;20128;-78
2022/05/25 11:40:06;;;;;;;3.40;0.98;;;;;;;19.55;40.18;100309.19;10455068;28;20055;-78
2022/05/25 11:45:24;;;;;;;0.77;0.77;;;;;;;19.68;38.02;100301.25;10472027;28;20045;-78
2022/05/25 11:50:38;;;;;;;2.97;0.80;;;;;;;18.97;40.96;100299.81;10471760;28;20045;-78
2022/05/25 11:55:49;;;;;;;2.42;0.60;;;;;;;19.63;39.97;100271.00;10440434;28;20068;-77
2022/05/25 12:01:01;;;;;;;2.40;0.65;;;;;;;20.94;39.04;100282.94;10473186;28;20056;-79
2022/05/25 12:06:21;;;;;;;1.42;0.88;;;;;;;20.25;39.05;100288.00;10452080;28;20038;-78
2022/05/25 12:11:31;;;;;;;1.20;0.75;;;;;;;20.30;37.21;100280.94;10427397;28;20152;-77
2022/05/25 12:16:39;;;;;;;2.03;0.60;;;;;;;20.61;37.02;100284.50;10455895;28;20045;-77
2022/05/25 12:21:46;;;;;;;1.25;0.90;;;;;;;20.70;36.93;100280.59;10450710;28;20160;-77
2022/05/25 12:26:50;;;;;;;1.20;1.10;;;;;;;19.59;39.38;100285.19;10442653;28;20046;-76
2022/05/25 12:31:56;;;;;;;1.92;0.80;;;;;;;20.68;37.99;100290.84;10441782;28;20111;-79
2022/05/25 12:37:03;;;;;;;2.15;0.77;;;;;;;18.61;40.30;100286.75;10469053;28;20067;-78
2022/05/25 12:42:34;;;;;;;1.55;0.55;;;;;;;18.20;39.98;100292.41;10445628;28;20105;-78
2022/05/25 12:53:20;;;;;;;2.05;0.70;;;;;;;18.82;40.52;100293.47;10462177;28;20144;-78
2022/05/25 12:58:41;;;;;;;2.15;1.00;;;;;;;17.89;40.87;100292.31;10460005;28;20048;-78
2022/05/25 13:04:16;;;;;;;0.80;0.65;;;;;;;17.83;40.63;100299.31;10460632;28;20061;-77
2022/05/25 13:09:39;;;;;;;1.77;0.90;;;;;;;19.36;40.04;100294.25;10467207;28;20123;-78
2022/05/25 13:14:57;;;;;;;1.65;0.80;;;;;;;19.76;39.58;100296.75;10453514;28;20037;-78
2022/05/25 13:20:06;;;;;;;1.45;0.52;;;;;;;20.58;37.83;100280.25;10427236;28;20061;-77
2022/05/25 13:30:52;;;;;;;0.50;0.50;;;;;;;18.74;41.13;100288.91;10534571;28;20375;-78
2022/05/25 13:35:58;;;;;;;1.88;0.50;;;;;;;20.41;36.58;100284.25;10495523;28;20033;-77
2022/05/25 13:41:08;;;;;;;1.48;0.77;;;;;;;19.49;39.55;100282.69;10483248;28;20041;-79
2022/05/25 13:46:29;;;;;;;2.13;1.02;;;;;;;20.49;37.64;100278.69;10487999;28;20125;-78
2022/05/25 13:51:32;;;;;;;2.97;0.43;;;;;;;20.27;37.19;100275.88;10480267;28;20662;-77
2022/05/25 13:56:36;;;;;;;0.50;0.50;;;;;;;20.55;35.84;100267.00;10482124;28;20087;-77
2022/05/25 14:01:41;;;;;;;0.73;0.57;;;;;;;20.53;37.07;100256.28;10471450;28;20048;-78
2022/05/25 14:06:45;;;;;;;3.10;0.40;;;;;;;20.02;37.21;100255.41;10456907;28;20059;-78
2022/05/25 14:11:51;;;;;;;1.10;0.40;;;;;;;20.52;35.25;100259.22;10486519;28;20041;-78
2022/05/25 14:16:58;;;;;;;0.40;0.40;;;;;;;20.04;36.25;100269.69;10484867;28;20135;-78
2022/05/25 14:22:05;;;;;;;0.43;0.40;;;;;;;19.34;36.42;100255.44;10479308;28;20037;-78
2022/05/25 14:27:23;;;;;;;0.85;0.43;;;;;;;19.59;35.86;100272.41;10484245;28;20037;-78
2022/05/25 14:32:30;;;;;;;2.13;0.47;;;;;;;19.97;35.00;100275.06;10492323;28;20037;-78
2022/05/25 14:37:38;;;;;;;0.63;0.40;;;;;;;19.27;34.97;100259.06;10483465;28;20037;-78
2022/05/25 14:42:51;;;;;;;0.98;0.40;;;;;;;18.58;36.12;100262.63;10442671;28;20045;-79
2022/05/25 14:48:05;;;;;;;2.33;0.50;;;;;;;18.98;36.76;100261.53;10425109;28;20049;-78
2022/05/25 14:53:13;;;;;;;0.63;0.30;;;;;;;19.17;37.52;100264.75;10435129;28;20045;-78
2022/05/25 14:58:22;;;;;;;2.35;0.40;;;;;;;19.40;36.49;100270.19;10446494;28;20049;-78
2022/05/25 15:03:38;;;;;;;3.20;0.60;;;;;;;19.29;37.46;100265.19;10461103;28;20049;-78
2022/05/25 15:08:43;;;;;;;0.50;0.50;;;;;;;19.20;36.51;100268.00;10441942;28;20037;-78
2022/05/25 15:19:08;;;;;;;1.13;0.52;;;;;;;18.62;38.40;100258.53;10479449;22;20067;-78
2022/05/25 15:24:16;;;;;;;1.33;0.70;;;;;;;18.26;39.29;100266.38;10506198;28;20024;-78
2022/05/25 15:29:27;;;;;;;0.55;0.30;;;;;;;17.52;39.86;100285.59;10462025;28;20040;-78
2022/05/25 15:34:35;;;;;;;1.08;0.57;;;;;;;17.71;40.45;100281.66;10458941;28;20128;-79
2022/05/25 15:39:40;;;;;;;2.80;0.70;;;;;;;18.51;40.06;100291.56;10458172;28;20045;-79
2022/05/25 15:44:42;;;;;;;1.08;0.50;;;;;;;18.69;40.11;100264.94;10450483;28;20461;-78
2022/05/25 15:49:47;;;;;;;2.92;0.70;;;;;;;18.59;39.30;100267.03;10435701;28;20452;-78
2022/05/25 15:54:50;;;;;;;4.85;0.70;;;;;;;17.78;39.07;100287.25;10423554;28;20550;-78
2022/05/25 15:59:54;;;;;;;1.55;0.95;;;;;;;17.47;41.33;100286.13;10456588;28;20078;-77
2022/05/25 16:04:58;;;;;;;1.27;0.65;;;;;;;17.90;40.63;100289.41;10435854;28;20128;-78
2022/05/25 16:10:01;;;;;;;2.83;0.70;;;;;;;17.95;41.15;100283.47;10435694;28;20140;-78
2022/05/25 16:15:04;;;;;;;1.40;0.55;;;;;;;17.56;42.21;100291.56;10457089;28;20033;-78
2022/05/25 16:20:10;;;;;;;3.60;0.75;;;;;;;17.77;41.39;100300.00;10441436;28;20135;-77
2022/05/25 16:25:19;;;;;;;1.40;0.60;;;;;;;17.97;39.74;100289.63;10444483;28;20056;-78
2022/05/25 16:30:22;;;;;;;3.70;0.80;;;;;;;17.65;41.03;100306.81;10418122;28;20132;-78
2022/05/25 16:35:26;;;;;;;1.52;0.77;;;;;;;17.50;41.22;100290.38;10416999;28;20052;-78
2022/05/25 16:40:29;;;;;;;2.53;0.80;;;;;;;17.60;41.30;100292.91;10415694;28;20103;-78
2022/05/25 16:45:32;;;;;;;1.52;0.80;;;;;;;17.32;42.37;100293.28;10432912;28;20084;-78
2022/05/25 16:50:36;;;;;;;0.73;0.47;;;;;;;17.07;42.11;100305.13;10431083;28;20076;-76
2022/05/25 16:55:39;;;;;;;6.47;0.75;;;;;;;17.31;42.93;100293.44;10460156;28;20037;-78
2022/05/25 17:00:43;;;;;;;0.70;0.65;;;;;;;17.32;42.55;100290.56;10452155;28;20041;-78
2022/05/25 17:05:47;;;;;;;4.25;0.57;;;;;;;17.15;42.42;100305.16;10435483;28;20044;-77
2022/05/25 17:10:51;;;;;;;2.13;0.80;;;;;;;17.13;42.47;100297.16;10441137;28;20052;-77
2022/05/25 17:15:54;;;;;;;4.53;1.02;;;;;;;16.90;42.66;100301.53;10434699;28;20049;-78
2022/05/25 17:20:58;;;;;;;1.80;0.82;;;;;;;17.05;42.34;100299.84;10433028;28;20045;-78
2022/05/25 17:26:01;;;;;;;2.88;0.75;;;;;;;17.18;42.14;100302.09;10432544;28;20050;-78
2022/05/25 17:31:04;;;;;;;1.55;0.68;;;;;;;17.38;42.46;100308.88;10434911;28;20046;-78
2022/05/25 17:41:48;;;;;;;2.17;0.60;;;;;;;17.23;42.03;100292.44;10432034;28;20071;-78
2022/05/25 17:46:53;;;;;;;2.35;1.00;;;;;;;17.67;43.06;100300.19;10448946;28;20053;-79
2022/05/25 17:51:58;;;;;;;1.02;0.52;;;;;;;17.61;43.47;100313.63;10456468;28;20503;-79
2022/05/25 17:57:01;;;;;;;2.13;0.88;;;;;;;17.19;43.63;100312.78;10445085;28;20040;-78
2022/05/25 18:02:05;;;;;;;3.83;0.85;;;;;;;16.88;44.01;100315.25;10451098;28;20048;-79
2022/05/25 18:07:12;;;;;;;6.60;0.75;;;;;;;16.85;43.13;100322.91;10451379;28;20053;-79
2022/05/25 18:12:15;;;;;;;3.75;0.80;;;;;;;16.38;45.01;100329.72;10450261;28;20067;-79
2022/05/25 18:17:20;;;;;;;4.68;0.88;;;;;;;16.54;44.64;100327.06;10471892;28;20056;-78
2022/05/25 18:22:24;;;;;;;1.27;0.73;;;;;;;16.48;44.58;100330.44;10445397;28;20449;-77
2022/05/25 18:27:27;;;;;;;4.30;0.65;;;;;;;16.22;44.76;100322.31;10443890;28;20483;-77
2022/05/25 18:32:30;;;;;;;2.67;0.70;;;;;;;16.45;44.16;100324.47;10437186;28;20049;-78
2022/05/25 18:37:34;;;;;;;2.67;1.20;;;;;;;16.43;44.76;100326.50;10437087;28;20050;-78
2022/05/25 18:42:37;;;;;;;2.38;0.77;;;;;;;16.21;45.02;100328.78;10421196;28;20068;-77
2022/05/25 18:47:42;;;;;;;1.30;0.80;;;;;;;16.19;44.92;100328.06;10439102;28;20045;-78
2022/05/25 18:52:46;;;;;;;1.65;0.80;;;;;;;16.12;45.02;100319.72;10434391;28;20041;-78
2022/05/25 18:57:49;;;;;;;3.33;0.68;;;;;;;16.41;45.10;100336.66;10420139;28;20041;-78
2022/05/25 19:02:52;;;;;;;5.63;1.25;;;;;;;16.33;44.81;100334.78;10422788;28;20052;-78
2022/05/25 19:07:56;;;;;;;2.45;1.25;;;;;;;16.27;45.17;100341.69;10417680;28;20410;-77
2022/05/25 19:12:59;;;;;;;1.65;0.90;;;;;;;16.17;45.19;100346.34;10415600;28;20049;-77
2022/05/25 19:18:02;;;;;;;1.85;0.80;;;;;;;15.66;45.97;100343.53;10431909;28;20045;-77
2022/05/25 19:23:11;;;;;;;2.00;0.73;;;;;;;16.14;45.62;100335.84;10454505;28;20045;-77
2022/05/25 19:28:14;;;;;;;1.38;0.98;;;;;;;15.88;46.78;100349.41;10436060;28;20045;-77
2022/05/25 19:33:17;;;;;;;1.88;0.85;;;;;;;15.79;46.63;100350.34;10455909;28;20044;-77
2022/05/25 19:38:23;;;;;;;0.82;0.57;;;;;;;15.41;46.86;100356.03;10430574;28;20486;-78
2022/05/25 19:43:28;;;;;;;2.17;0.70;;;;;;;15.79;46.77;100358.47;10440025;28;20049;-77
2022/05/25 19:48:32;;;;;;;2.03;0.98;;;;;;;15.93;46.79;100374.16;10441481;28;20494;-77
2022/05/25 19:53:38;;;;;;;3.83;0.90;;;;;;;15.57;46.77;100384.22;10442775;28;20045;-78
2022/05/25 19:58:44;;;;;;;3.13;0.90;;;;;;;15.77;46.87;100395.69;10431881;28;20048;-77
2022/05/25 20:03:47;;;;;;;0.75;0.75;;;;;;;15.46;47.45;100396.13;10437286;28;20039;-78
2022/05/25 20:08:51;;;;;;;1.15;0.68;;;;;;;15.49;47.18;100403.94;10441264;28;20049;-78
2022/05/25 20:13:54;;;;;;;1.73;0.60;;;;;;;15.07;47.65;100409.09;10445969;28;20099;-77
2022/05/25 20:18:57;;;;;;;3.90;0.90;;;;;;;15.27;48.39;100399.81;10439343;28;20046;-77
2022/05/25 20:24:01;;;;;;;4.35;0.95;;;;;;;15.58;48.05;100400.31;10443992;28;20051;-78
2022/05/25 20:29:04;;;;;;;3.63;0.98;;;;;;;15.37;48.55;100403.34;10446400;28;20076;-77
2022/05/25 20:34:07;;;;;;;1.95;0.88;;;;;;;15.36;48.51;100403.47;10451829;28;20041;-77
2022/05/25 20:39:11;;;;;;;2.30;1.08;;;;;;;15.09;48.48;100407.09;10441783;28;20037;-78
2022/05/25 20:44:14;;;;;;;2.00;0.80;;;;;;;15.30;48.09;100412.19;10451410;28;20087;-76
2022/05/25 20:49:17;;;;;;;4.57;0.95;;;;;;;15.23;48.69;100411.97;10464123;28;20064;-77
2022/05/25 20:54:25;;;;;;;1.98;0.90;;;;;;;15.04;48.56;100413.81;10460795;28;20041;-78
2022/05/25 20:59:28;;;;;;;2.95;0.90;;;;;;;15.08;48.41;100408.94;10451699;28;20037;-77
2022/05/25 21:04:31;;;;;;;3.85;1.02;;;;;;;14.87;49.08;100424.59;10450488;28;20115;-77
2022/05/25 21:09:37;;;;;;;1.55;0.82;;;;;;;14.60;49.59;100419.03;10447122;28;20041;-77
2022/05/25 21:14:40;;;;;;;3.85;0.85;;;;;;;14.59;49.92;100411.94;10447190;28;20520;-77
2022/05/25 21:19:43;;;;;;;3.95;0.90;;;;;;;14.92;50.01;100412.34;10445417;28;20041;-77
2022/05/25 21:24:47;;;;;;;2.90;0.60;;;;;;;15.04;49.94;100416.50;10444640;28;20512;-77
2022/05/25 21:29:50;;;;;;;3.50;0.90;;;;;;;14.76;50.82;100417.56;10444388;28;20103;-77
2022/05/25 21:34:54;;;;;;;4.90;0.80;;;;;;;14.54;51.27;100413.41;10448515;28;20071;-77
2022/05/25 21:39:58;;;;;;;2.95;1.10;;;;;;;15.02;50.19;100415.81;10440991;28;20450;-77
2022/05/25 21:45:01;;;;;;;2.00;0.90;;;;;;;15.35;50.00;100412.63;10447337;28;20105;-77
2022/05/25 21:50:05;;;;;;;3.40;0.70;;;;;;;14.93;50.49;100413.19;10451572;28;20080;-77
2022/05/25 21:55:12;;;;;;;1.10;0.90;;;;;;;14.79;51.45;100418.09;10455535;28;20087;-77
2022/05/25 22:00:41;;;;;;;6.45;1.00;;;;;;;14.62;51.83;100436.94;10451164;28;20033;-77
2022/05/25 22:05:44;;;;;;;2.08;1.35;;;;;;;14.56;52.41;100419.47;10456695;28;20039;-77
2022/05/25 22:10:48;;;;;;;2.85;1.50;;;;;;;14.77;52.25;100420.09;10453014;28;20040;-78
2022/05/25 22:15:51;;;;;;;4.10;1.70;;;;;;;14.63;52.28;100431.41;10435723;28;20450;-77
2022/05/25 22:21:00;;;;;;;2.28;1.85;;;;;;;14.44;53.55;100426.94;10447593;28;20076;-78
2022/05/25 22:26:04;;;;;;;4.20;1.70;;;;;;;14.10;54.13;100422.06;10450110;28;20535;-77
2022/05/25 22:31:07;;;;;;;2.53;2.20;;;;;;;14.13;54.64;100418.22;10449443;28;20056;-78
2022/05/25 22:36:10;;;;;;;6.13;2.30;;;;;;;14.31;54.44;100426.38;10446957;28;20049;-77
2022/05/25 22:41:14;;;;;;;;;;;;;;;14.22;54.86;100441.63;10433034;28;20692;-78
2022/05/25 22:46:16;;;;;;;6.90;2.00;;;;;;;14.43;55.38;100441.47;10443454;28;19929;-78
2022/05/25 22:51:19;;;;;;;;;;;;;;;14.47;55.47;100448.25;10438998;28;20045;-78
2022/05/25 22:56:24;;;;;;;3.70;2.40;;;;;;;14.01;57.14;100451.78;10434756;28;19921;-77
2022/05/25 23:01:27;;;;;;;7.13;2.75;;;;;;;14.02;57.55;100442.69;10432923;28;20033;-78
2022/05/25 23:06:29;;;;;;;7.05;2.53;;;;;;;13.93;58.12;100468.69;10438933;28;20049;-78
2022/05/25 23:11:33;;;;;;;;;;;;;;;13.99;57.98;100470.84;10444047;28;20040;-78
2022/05/25 23:16:36;;;;;;;3.38;2.08;;;;;;;13.99;58.24;100470.84;10436946;28;19921;-78
2022/05/25 23:21:39;;;;;;;10.90;1.95;;;;;;;13.86;59.24;100471.13;10448282;28;20051;-78
2022/05/25 23:26:43;;;;;;;;;;;;;;;13.75;60.05;100471.28;10418121;28;20042;-78
2022/05/25 23:31:46;;;;;;;4.85;1.52;;;;;;;14.06;59.82;100457.59;10425838;28;19967;-78
2022/05/25 23:36:48;;;;;;;3.05;1.63;;;;;;;13.65;60.62;100462.31;10422065;28;20557;-78
2022/05/25 23:47:14;;;;;;;2.55;1.65;;;;;;;14.07;60.06;100462.88;10434820;28;20340;-78
2022/05/25 23:52:20;;;;;;;5.50;2.47;;;;;;;13.79;60.70;100459.19;10432650;28;20110;-78
2022/05/25 23:57:25;;;;;;;4.93;2.70;;;;;;;14.07;59.77;100467.38;10424847;28;20395;-77
